createdAt,value
2023-01-15T00:02:18.159Z,91.32
2023-01-15T00:04:45.340Z,90.70
2023-01-15T00:07:12.453Z,90.49
2023-01-15T00:09:39.407Z,90.64
2023-01-15T00:12:06.476Z,90.76
2023-01-15T00:14:33.439Z,90.38
2023-01-15T00:17:00.464Z,90.77
2023-01-15T00:19:27.482Z,90.52
2023-01-15T00:21:54.437Z,90.77
2023-01-15T00:24:40.271Z,90.09
2023-01-15T00:27:29.511Z,89.83
2023-01-15T00:29:56.829Z,89.74
2023-01-15T00:32:27.082Z,89.30
2023-01-15T00:34:56.663Z,89.65
2023-01-15T00:37:23.675Z,88.70
2023-01-15T00:39:50.720Z,89.17
2023-01-15T00:42:18.023Z,88.39
2023-01-15T00:44:46.795Z,88.53
2023-01-15T00:47:14.816Z,88.89
2023-01-15T00:49:43.188Z,88.77
2023-01-15T00:52:11.571Z,89.45
2023-01-15T00:54:38.612Z,89.76
2023-01-15T00:57:05.574Z,90.02
2023-01-15T00:59:32.705Z,89.86
2023-01-15T01:01:59.785Z,90.40
2023-01-15T01:04:26.928Z,91.05
2023-01-15T01:06:54.279Z,91.57
2023-01-15T01:09:21.531Z,91.87
2023-01-15T01:11:50.536Z,92.19
2023-01-15T01:14:17.563Z,92.58
2023-01-15T01:16:44.704Z,92.77
2023-01-15T01:19:18.797Z,92.72
2023-01-15T01:21:47.807Z,92.96
2023-01-15T01:24:21.996Z,92.22
2023-01-15T01:26:51.116Z,92.59
2023-01-15T01:29:22.375Z,92.51
2023-01-15T01:31:51.101Z,92.00
2023-01-15T01:34:19.191Z,91.29
2023-01-15T01:36:46.228Z,91.28
2023-01-15T01:39:17.593Z,90.94
2023-01-15T01:41:45.377Z,90.28
2023-01-15T01:44:37.208Z,90.54
2023-01-15T01:47:15.438Z,90.59
2023-01-15T01:49:45.011Z,89.41
2023-01-15T01:52:32.786Z,89.57
2023-01-15T01:55:02.513Z,89.46
2023-01-15T01:57:30.613Z,89.73
2023-01-15T02:00:01.024Z,89.53
2023-01-15T02:02:28.959Z,89.39
2023-01-15T02:04:56.383Z,89.21
2023-01-15T02:07:23.704Z,89.08
2023-01-15T02:09:50.682Z,89.38
2023-01-15T02:12:27.631Z,88.97
2023-01-15T02:15:09.702Z,88.78
2023-01-15T02:17:57.602Z,88.19
2023-01-15T02:20:39.498Z,88.50
2023-01-15T02:23:47.870Z,87.97
2023-01-15T02:26:43.791Z,87.34
2023-01-15T02:29:23.225Z,87.44
2023-01-15T02:31:52.829Z,87.37
2023-01-15T02:34:31.220Z,87.24
2023-01-15T02:37:15.544Z,86.83
2023-01-15T02:39:48.041Z,86.68
2023-01-15T02:42:19.386Z,86.85
2023-01-15T02:44:53.912Z,86.92
2023-01-15T02:47:29.269Z,86.79
2023-01-15T02:50:05.192Z,87.31
2023-01-15T02:52:47.097Z,87.26
2023-01-15T02:55:26.417Z,86.97
2023-01-15T02:58:00.498Z,87.50
2023-01-15T03:00:35.912Z,86.91
2023-01-15T03:03:46.429Z,87.04
2023-01-15T03:06:25.391Z,87.10
2023-01-15T03:08:52.757Z,87.61
2023-01-15T03:11:20.731Z,87.76
2023-01-15T03:14:16.636Z,88.20
2023-01-15T03:16:57.865Z,87.57
2023-01-15T03:19:49.132Z,87.89
2023-01-15T03:22:41.676Z,87.88
2023-01-15T03:25:25.231Z,87.85
2023-01-15T03:27:59.649Z,87.77
2023-01-15T03:30:27.910Z,87.19
2023-01-15T03:32:55.584Z,87.58
2023-01-15T03:35:52.898Z,87.67
2023-01-15T03:38:39.402Z,88.04
2023-01-15T03:41:40.968Z,87.90
2023-01-15T03:45:01.300Z,87.54
2023-01-15T03:47:49.367Z,87.13
2023-01-15T03:50:35.970Z,86.92
2023-01-15T03:53:19.901Z,87.46
2023-01-15T03:56:06.114Z,86.90
2023-01-15T03:58:47.695Z,86.93
2023-01-15T04:01:28.088Z,86.86
2023-01-15T04:03:59.729Z,86.01
2023-01-15T04:06:32.087Z,86.50
2023-01-15T04:09:00.271Z,86.05
2023-01-15T04:11:29.209Z,86.71
2023-01-15T04:14:02.308Z,86.24
2023-01-15T04:16:39.278Z,86.38
2023-01-15T04:19:06.935Z,86.32
2023-01-15T04:21:37.253Z,86.34
2023-01-15T04:24:04.626Z,86.54
2023-01-15T04:26:31.594Z,86.47
2023-01-15T04:28:58.602Z,85.78
2023-01-15T04:31:25.766Z,85.89
2023-01-15T04:33:52.730Z,86.01
2023-01-15T04:36:19.857Z,86.01
2023-01-15T04:38:46.908Z,85.58
2023-01-15T04:41:32.685Z,85.54
2023-01-15T04:44:09.163Z,85.80
2023-01-15T04:46:44.053Z,85.25
2023-01-15T04:49:18.178Z,85.25
2023-01-15T04:51:46.472Z,85.36
2023-01-15T04:54:16.199Z,85.06
2023-01-15T04:56:47.685Z,84.03
2023-01-15T04:59:17.403Z,84.34
2023-01-15T05:01:58.055Z,84.40
2023-01-15T05:04:30.590Z,83.91
2023-01-15T05:06:57.876Z,83.41
2023-01-15T05:09:24.900Z,84.22
2023-01-15T05:11:51.930Z,83.41
2023-01-15T05:14:18.978Z,84.30
2023-01-15T05:16:45.951Z,84.61
2023-01-15T05:19:13.210Z,84.04
2023-01-15T05:21:43.947Z,84.24
2023-01-15T05:24:16.510Z,84.24
2023-01-15T05:26:45.184Z,84.78
2023-01-15T05:29:13.726Z,85.08
2023-01-15T05:31:42.648Z,85.03
2023-01-15T05:34:11.099Z,84.24
2023-01-15T05:36:38.172Z,84.70
2023-01-15T05:39:05.547Z,84.13
2023-01-15T05:41:51.076Z,84.25
2023-01-15T05:44:26.763Z,84.04
2023-01-15T05:47:05.764Z,84.47
2023-01-15T05:49:34.313Z,84.12
2023-01-15T05:52:02.226Z,84.35
2023-01-15T05:54:33.628Z,84.26
2023-01-15T05:57:01.626Z,83.91
2023-01-15T05:59:31.681Z,83.49
2023-01-15T06:01:59.862Z,83.74
2023-01-15T06:04:27.117Z,84.40
2023-01-15T06:06:56.561Z,82.72
2023-01-15T06:09:28.883Z,82.93
2023-01-15T06:11:58.853Z,83.60
2023-01-15T06:14:25.986Z,83.72
2023-01-15T06:16:53.122Z,83.24
2023-01-15T06:19:20.181Z,83.56
2023-01-15T06:21:47.367Z,83.44
2023-01-15T06:24:16.732Z,83.08
2023-01-15T06:26:44.064Z,82.78
2023-01-15T06:29:11.274Z,82.89
2023-01-15T06:31:38.321Z,83.46
2023-01-15T06:34:05.488Z,83.33
2023-01-15T06:36:32.623Z,83.60
2023-01-15T06:38:59.694Z,83.75
2023-01-15T06:41:45.756Z,83.57
2023-01-15T06:44:36.264Z,84.34
2023-01-15T06:47:20.428Z,84.35
2023-01-15T06:49:50.486Z,85.01
2023-01-15T06:52:17.524Z,85.47
2023-01-15T06:54:44.690Z,85.16
2023-01-15T06:57:11.719Z,85.18
2023-01-15T06:59:38.747Z,85.28
2023-01-15T07:02:05.796Z,84.28
2023-01-15T07:04:33.351Z,84.07
2023-01-15T07:07:00.351Z,84.00
2023-01-15T07:09:27.535Z,83.61
2023-01-15T07:11:54.790Z,83.64
2023-01-15T07:14:25.237Z,83.77
2023-01-15T07:16:52.838Z,83.72
2023-01-15T07:19:20.620Z,83.86
2023-01-15T07:21:48.837Z,83.91
2023-01-15T07:24:17.395Z,84.24
2023-01-15T07:26:45.971Z,84.60
2023-01-15T07:29:17.678Z,84.54
2023-01-15T07:31:45.200Z,84.22
2023-01-15T07:34:12.562Z,84.13
2023-01-15T07:36:39.523Z,83.85
2023-01-15T07:39:09.259Z,84.16
2023-01-15T07:41:55.738Z,84.29
2023-01-15T07:44:42.061Z,84.56
2023-01-15T07:47:43.508Z,86.00
2023-01-15T07:50:20.995Z,85.32
2023-01-15T07:52:48.433Z,84.74
2023-01-15T07:55:15.747Z,84.30
2023-01-15T07:57:43.389Z,84.23
2023-01-15T08:00:21.123Z,84.31
2023-01-15T08:02:50.658Z,83.38
2023-01-15T08:05:18.980Z,84.71
2023-01-15T08:07:45.949Z,84.46
2023-01-15T08:10:14.586Z,84.05
2023-01-15T08:13:00.548Z,83.96
2023-01-15T08:15:33.453Z,83.17
2023-01-15T08:18:00.531Z,81.56
2023-01-15T08:20:27.731Z,79.06
2023-01-15T08:22:54.825Z,79.66
2023-01-15T08:25:25.255Z,78.98
2023-01-15T08:27:53.803Z,79.31
2023-01-15T08:30:24.964Z,78.60
2023-01-15T08:32:52.986Z,78.71
2023-01-15T08:35:20.212Z,77.74
2023-01-15T08:37:47.339Z,77.61
2023-01-15T08:40:14.575Z,77.39
2023-01-15T08:42:41.695Z,77.15
2023-01-15T08:45:09.974Z,75.79
2023-01-15T08:47:37.617Z,76.77
2023-01-15T08:50:07.694Z,76.48
2023-01-15T08:52:34.846Z,76.07
2023-01-15T08:55:02.034Z,76.37
2023-01-15T08:57:29.186Z,75.70
2023-01-15T08:59:56.193Z,75.80
2023-01-15T09:02:23.243Z,75.81
2023-01-15T09:04:52.397Z,75.45
2023-01-15T09:07:19.387Z,76.62
2023-01-15T09:09:46.558Z,76.87
2023-01-15T09:12:14.267Z,76.67
2023-01-15T09:14:57.976Z,76.11
2023-01-15T09:17:28.771Z,76.63
2023-01-15T09:19:56.229Z,76.23
2023-01-15T09:22:23.472Z,76.56
2023-01-15T09:24:51.061Z,77.07
2023-01-15T09:27:18.178Z,77.15
2023-01-15T09:29:45.201Z,76.39
2023-01-15T09:32:12.328Z,76.13
2023-01-15T09:34:39.554Z,76.56
2023-01-15T09:37:06.798Z,76.82
2023-01-15T09:39:33.828Z,77.21
2023-01-15T09:42:15.896Z,76.49
2023-01-15T09:45:18.681Z,76.85
2023-01-15T09:48:20.422Z,76.73
2023-01-15T09:51:16.681Z,75.45
2023-01-15T09:53:58.130Z,75.92
2023-01-15T09:56:29.642Z,75.46
2023-01-15T09:59:01.419Z,76.01
2023-01-15T10:01:33.418Z,75.59
2023-01-15T10:04:31.559Z,75.89
2023-01-15T10:07:54.263Z,74.57
2023-01-15T10:10:30.829Z,73.93
2023-01-15T10:13:10.007Z,74.85
2023-01-15T10:15:44.803Z,74.97
2023-01-15T10:18:24.906Z,74.52
2023-01-15T10:21:09.689Z,74.51
2023-01-15T10:23:55.461Z,74.07
2023-01-15T10:26:38.022Z,74.31
2023-01-15T10:29:33.790Z,73.63
2023-01-15T10:32:09.539Z,73.11
2023-01-15T10:35:32.797Z,73.03
2023-01-15T10:38:26.467Z,72.28
2023-01-15T10:40:53.418Z,71.75
2023-01-15T10:43:45.243Z,71.04
2023-01-15T10:46:20.641Z,71.43
2023-01-15T10:49:16.707Z,71.53
2023-01-15T10:51:50.092Z,70.80
2023-01-15T10:54:23.410Z,70.65
2023-01-15T10:57:06.050Z,70.87
2023-01-15T10:59:59.296Z,70.26
2023-01-15T11:02:44.405Z,70.81
2023-01-15T11:05:20.661Z,69.28
2023-01-15T11:10:41.589Z,69.29
2023-01-15T11:13:40.853Z,68.48
2023-01-15T11:16:44.697Z,67.61
2023-01-15T11:19:38.174Z,68.76
2023-01-15T11:22:16.867Z,68.18
2023-01-15T11:24:52.719Z,68.46
2023-01-15T11:27:27.099Z,68.86
2023-01-15T11:30:01.171Z,67.96
2023-01-15T11:32:35.469Z,67.86
2023-01-15T11:35:22.746Z,67.86
2023-01-15T11:37:49.879Z,68.77
2023-01-15T11:40:19.572Z,67.89
2023-01-15T11:43:09.871Z,67.38
2023-01-15T11:46:09.982Z,66.75
2023-01-15T11:49:07.003Z,66.87
2023-01-15T11:51:49.211Z,67.26
2023-01-15T11:54:16.960Z,67.67
2023-01-15T11:56:46.024Z,67.32
2023-01-15T11:59:19.873Z,67.28
2023-01-15T12:02:04.918Z,66.73
2023-01-15T12:04:37.578Z,67.81
2023-01-15T12:07:13.183Z,68.04
2023-01-15T12:09:54.343Z,66.74
2023-01-15T12:12:45.182Z,68.44
2023-01-15T12:15:42.272Z,68.90
2023-01-15T12:18:24.484Z,68.26
2023-01-15T12:21:26.898Z,68.22
2023-01-15T12:24:24.964Z,68.73
2023-01-15T12:27:30.096Z,68.83
2023-01-15T12:30:15.264Z,69.66
2023-01-15T12:32:52.198Z,70.50
2023-01-15T12:35:31.639Z,70.39
2023-01-15T12:38:24.801Z,71.13
2023-01-15T12:41:04.417Z,71.35
2023-01-15T12:43:50.100Z,71.21
2023-01-15T12:46:25.643Z,70.81
2023-01-15T12:49:08.288Z,71.17
2023-01-15T12:52:05.083Z,70.61
2023-01-15T12:54:46.758Z,70.80
2023-01-15T12:57:31.046Z,71.00
2023-01-15T13:00:12.444Z,70.56
2023-01-15T13:02:54.514Z,71.22
2023-01-15T13:05:34.194Z,70.99
2023-01-15T13:08:32.071Z,71.95
2023-01-15T13:10:59.162Z,72.61
2023-01-15T13:13:37.312Z,72.45
2023-01-15T13:16:10.688Z,72.51
2023-01-15T13:19:17.299Z,70.93
2023-01-15T13:21:52.094Z,71.59
2023-01-15T13:25:12.704Z,72.05
2023-01-15T13:28:11.942Z,72.14
2023-01-15T13:31:07.638Z,72.38
2023-01-15T13:33:52.437Z,72.41
2023-01-15T13:36:40.522Z,71.70
2023-01-15T13:39:20.951Z,72.37
2023-01-15T13:42:10.585Z,71.92
2023-01-15T13:44:52.131Z,71.99
2023-01-15T13:47:27.066Z,72.00
2023-01-15T13:50:07.177Z,70.48
2023-01-15T13:52:37.749Z,69.86
2023-01-15T13:55:15.523Z,70.21
2023-01-15T13:57:43.293Z,69.22
2023-01-15T14:00:31.029Z,69.22
2023-01-15T14:03:03.097Z,68.87
2023-01-15T14:05:36.034Z,70.61
2023-01-15T14:08:17.343Z,71.40
2023-01-15T14:10:44.740Z,71.08
2023-01-15T14:13:51.747Z,72.00
2023-01-15T14:16:55.652Z,71.21
2023-01-15T14:20:23.360Z,71.26
2023-01-15T14:23:23.040Z,71.46
2023-01-15T14:26:14.677Z,71.75
2023-01-15T14:29:30.416Z,72.26
2023-01-15T14:32:24.747Z,71.96
2023-01-15T14:34:58.862Z,71.14
2023-01-15T14:37:34.703Z,71.54
2023-01-15T14:40:06.205Z,71.08
2023-01-15T14:42:57.749Z,70.50
2023-01-15T14:45:36.655Z,70.29
2023-01-15T14:48:18.916Z,70.01
2023-01-15T14:50:48.814Z,69.46
2023-01-15T14:53:32.359Z,68.96
2023-01-15T14:56:27.334Z,69.57
2023-01-15T14:59:00.251Z,69.80
2023-01-15T15:01:49.487Z,69.48
2023-01-15T15:04:25.418Z,69.46
2023-01-15T15:07:18.669Z,69.94
2023-01-15T15:10:10.854Z,69.86
2023-01-15T15:13:36.349Z,70.19
2023-01-15T15:16:40.725Z,69.96
2023-01-15T15:19:38.591Z,70.38
2023-01-15T15:22:12.035Z,70.27
2023-01-15T15:24:53.215Z,70.45
2023-01-15T15:27:24.394Z,71.13
2023-01-15T15:29:51.567Z,71.10
2023-01-15T15:32:25.007Z,71.29
2023-01-15T15:34:54.903Z,71.63
2023-01-15T15:37:29.333Z,72.08
2023-01-15T15:40:03.428Z,72.29
2023-01-15T15:43:44.502Z,72.32
2023-01-15T15:46:55.104Z,72.96
2023-01-15T15:49:22.171Z,73.05
2023-01-15T15:51:54.670Z,73.45
2023-01-15T15:54:28.421Z,73.60
2023-01-15T15:57:14.960Z,73.71
2023-01-15T15:59:50.329Z,74.00
2023-01-15T16:02:37.903Z,74.26
2023-01-15T16:05:23.765Z,74.92
2023-01-15T16:07:52.759Z,74.91
2023-01-15T16:10:26.904Z,74.91
2023-01-15T16:13:00.166Z,75.32
2023-01-15T16:15:34.135Z,75.18
2023-01-15T16:18:06.996Z,75.53
2023-01-15T16:20:36.835Z,75.65
2023-01-15T16:23:05.777Z,75.78
2023-01-15T16:25:37.710Z,75.51
2023-01-15T16:28:05.767Z,75.74
2023-01-15T16:30:33.436Z,76.01
2023-01-15T16:33:05.722Z,76.35
2023-01-15T16:35:37.252Z,76.65
2023-01-15T16:38:07.464Z,76.66
2023-01-15T16:40:40.442Z,76.73
2023-01-15T16:43:15.033Z,77.01
2023-01-15T16:46:04.716Z,77.11
2023-01-15T16:48:39.979Z,77.16
2023-01-15T16:51:44.930Z,77.29
2023-01-15T16:54:30.007Z,77.40
2023-01-15T16:57:27.601Z,77.36
2023-01-15T17:00:02.165Z,77.41
2023-01-15T17:02:42.896Z,77.67
2023-01-15T17:05:24.254Z,77.66
2023-01-15T17:07:54.082Z,77.67
2023-01-15T17:10:28.518Z,77.78
2023-01-15T17:12:58.706Z,77.84
2023-01-15T17:15:25.609Z,77.91
2023-01-15T17:17:55.618Z,78.12
2023-01-15T17:20:27.760Z,78.37
2023-01-15T17:22:56.280Z,78.42
2023-01-15T17:25:30.957Z,78.62
2023-01-15T17:28:00.855Z,78.24
2023-01-15T17:30:33.203Z,78.07
2023-01-15T17:33:06.048Z,78.01
2023-01-15T17:35:41.161Z,77.76
2023-01-15T17:38:13.912Z,77.74
2023-01-15T17:40:43.861Z,77.68
2023-01-15T17:43:18.540Z,77.82
2023-01-15T17:45:45.738Z,77.63
2023-01-15T17:48:13.532Z,77.84
2023-01-15T17:50:41.148Z,77.73
2023-01-15T17:53:11.244Z,77.77
2023-01-15T17:55:59.123Z,77.98
2023-01-15T17:58:44.826Z,78.44
2023-01-15T18:01:37.990Z,78.81
2023-01-15T18:04:35.487Z,78.90
2023-01-15T18:07:03.410Z,78.84
2023-01-15T18:09:30.963Z,78.67
2023-01-15T18:11:58.140Z,78.52
2023-01-15T18:14:26.517Z,78.16
2023-01-15T18:16:54.820Z,78.13
2023-01-15T18:19:21.977Z,78.44
2023-01-15T18:21:49.012Z,78.61
2023-01-15T18:24:17.228Z,78.86
2023-01-15T18:26:46.753Z,79.12
2023-01-15T18:29:14.133Z,79.21
2023-01-15T18:31:41.201Z,79.42
2023-01-15T18:34:18.797Z,79.58
2023-01-15T18:36:46.208Z,79.31
2023-01-15T18:39:13.895Z,79.59
2023-01-15T18:41:44.323Z,79.80
2023-01-15T18:44:36.950Z,79.82
2023-01-15T18:47:12.413Z,80.16
2023-01-15T18:49:45.739Z,80.25
2023-01-15T18:52:35.655Z,80.50
2023-01-15T18:55:05.604Z,80.67
2023-01-15T18:57:35.897Z,80.67
2023-01-15T19:00:04.333Z,80.72
2023-01-15T19:02:31.381Z,80.86
2023-01-15T19:04:59.773Z,80.83
2023-01-15T19:07:31.076Z,81.17
2023-01-15T19:09:58.092Z,81.18
2023-01-15T19:12:27.848Z,81.31
2023-01-15T19:15:18.258Z,81.16
2023-01-15T19:18:05.465Z,81.34
2023-01-15T19:20:34.562Z,81.76
2023-01-15T19:23:06.596Z,81.52
2023-01-15T19:25:49.635Z,81.77
2023-01-15T19:28:20.260Z,81.99
2023-01-15T19:31:11.702Z,82.21
2023-01-15T19:33:48.996Z,82.38
2023-01-15T19:36:18.502Z,82.67
2023-01-15T19:38:45.520Z,82.79
2023-01-15T19:41:31.398Z,83.00
2023-01-15T19:44:17.242Z,83.05
2023-01-15T19:47:08.678Z,83.22
2023-01-15T19:49:56.053Z,83.34
2023-01-15T19:52:35.263Z,83.82
2023-01-15T19:55:10.859Z,84.32
2023-01-15T19:57:41.571Z,84.42
2023-01-15T20:00:14.602Z,84.58
2023-01-15T20:02:43.802Z,84.68
2023-01-15T20:05:13.343Z,84.60
2023-01-15T20:07:41.093Z,84.62
2023-01-15T20:10:15.439Z,84.53
2023-01-15T20:13:01.557Z,84.38
2023-01-15T20:15:29.789Z,84.51
2023-01-15T20:17:57.893Z,84.06
2023-01-15T20:20:26.424Z,84.11
2023-01-15T20:22:56.518Z,84.36
2023-01-15T20:25:28.305Z,84.50
2023-01-15T20:27:57.406Z,84.80
2023-01-15T20:30:27.931Z,84.45
2023-01-15T20:33:08.450Z,84.22
2023-01-15T20:35:40.433Z,83.92
2023-01-15T20:38:07.583Z,83.87
2023-01-15T20:40:34.718Z,84.12
2023-01-15T20:43:20.665Z,84.40
2023-01-15T20:45:47.989Z,84.35
2023-01-15T20:48:15.008Z,84.41
2023-01-15T20:51:04.462Z,84.17
2023-01-15T20:53:34.315Z,84.53
2023-01-15T20:56:04.310Z,84.40
2023-01-15T20:58:31.450Z,84.05
2023-01-15T21:01:08.912Z,84.13
2023-01-15T21:03:37.441Z,84.30
2023-01-15T21:06:06.747Z,84.44
2023-01-15T21:08:35.534Z,84.76
2023-01-15T21:11:03.196Z,84.90
2023-01-15T21:13:31.108Z,85.04
2023-01-15T21:16:03.084Z,85.24
2023-01-15T21:18:35.502Z,85.55
2023-01-15T21:21:12.488Z,85.58
2023-01-15T21:23:40.322Z,85.34
2023-01-15T21:26:07.410Z,85.42
2023-01-15T21:28:34.409Z,85.60
2023-01-15T21:31:04.095Z,85.01
2023-01-15T21:33:31.166Z,84.94
2023-01-15T21:35:58.217Z,84.95
2023-01-15T21:38:25.259Z,84.83
2023-01-15T21:40:52.309Z,84.69
2023-01-15T21:43:37.861Z,84.40
2023-01-15T21:46:05.910Z,84.17
2023-01-15T21:48:33.584Z,84.03
2023-01-15T21:51:06.077Z,84.04
2023-01-15T21:53:33.248Z,84.42
2023-01-15T21:56:00.268Z,84.66
2023-01-15T21:58:27.257Z,84.73
2023-01-15T22:00:54.314Z,84.68
2023-01-15T22:03:21.403Z,84.40
2023-01-15T22:05:48.375Z,84.15
2023-01-15T22:08:16.980Z,83.99
2023-01-15T22:10:44.029Z,84.21
2023-01-15T22:13:11.015Z,84.40
2023-01-15T22:15:38.063Z,84.63
2023-01-15T22:18:05.094Z,84.78
2023-01-15T22:20:32.172Z,84.78
2023-01-15T22:22:59.148Z,84.87
2023-01-15T22:25:26.105Z,84.87
2023-01-15T22:27:54.083Z,84.80
2023-01-15T22:30:21.222Z,84.67
2023-01-15T22:32:49.563Z,84.46
2023-01-15T22:35:18.592Z,84.40
2023-01-15T22:37:45.563Z,84.41
2023-01-15T22:40:13.619Z,84.54
2023-01-15T22:42:40.621Z,84.42
2023-01-15T22:45:08.171Z,83.72
2023-01-15T22:47:35.196Z,83.79
2023-01-15T22:50:02.216Z,83.73
2023-01-15T22:52:29.277Z,83.70
2023-01-15T22:54:56.380Z,83.79
2023-01-15T22:57:23.607Z,83.94
2023-01-15T22:59:50.695Z,84.19
2023-01-15T23:02:38.424Z,84.30
2023-01-15T23:05:07.501Z,84.50
2023-01-15T23:07:36.954Z,84.60
2023-01-15T23:10:09.806Z,84.73
2023-01-15T23:12:37.823Z,84.79
2023-01-15T23:15:12.249Z,84.97
2023-01-15T23:17:40.219Z,84.92
2023-01-15T23:20:09.635Z,84.73
2023-01-15T23:22:37.845Z,84.70
2023-01-15T23:25:05.870Z,84.28
2023-01-15T23:27:32.965Z,84.40
2023-01-15T23:29:59.989Z,84.35
2023-01-15T23:32:27.003Z,84.49
2023-01-15T23:34:53.964Z,83.97
2023-01-15T23:37:20.973Z,84.03
2023-01-15T23:39:47.972Z,84.30
2023-01-15T23:42:33.612Z,84.30
2023-01-15T23:45:19.517Z,84.44
2023-01-15T23:47:46.486Z,84.69
2023-01-15T23:50:13.472Z,84.41
2023-01-15T23:52:40.423Z,84.93
2023-01-15T23:55:08.034Z,85.28
2023-01-15T23:57:35.057Z,85.46
